Time;durP1;ratioP1;P1;durP2;ratioP2;P2;SDS_P1;SDS_P2;PMS_P1;PMS_P2;Temp;Humidity;BMP_temperature;BMP_pressure;BME280_temperature;BME280_humidity;BME280_pressure;Samples;Min_cycle;Max_cycle;Signal;HPM_P1;HPM_P2
2021/07/31 00:00:41;;;;;;;6.13;4.32;;;;;;;;;;5084258;28;20032;-50
2021/07/31 00:03:07;;;;;;;5.85;4.43;;;;;;;;;;5064937;28;20186;-48
2021/07/31 00:05:33;;;;;;;9.15;4.53;;;;;;;;;;5075871;28;20103;-50
2021/07/31 00:07:59;;;;;;;5.72;3.78;;;;;;;;;;5063353;28;20025;-48
2021/07/31 00:10:25;;;;;;;7.22;4.20;;;;;;;;;;5082364;28;20052;-48
2021/07/31 00:12:51;;;;;;;8.15;3.65;;;;;;;;;;5077606;28;20021;-48
2021/07/31 00:15:17;;;;;;;3.88;3.42;;;;;;;;;;5072815;28;20116;-48
2021/07/31 00:17:43;;;;;;;4.80;3.55;;;;;;;;;;5067896;28;20016;-48
2021/07/31 00:20:09;;;;;;;7.03;3.85;;;;;;;;;;5089583;28;20025;-49
2021/07/31 00:22:35;;;;;;;9.05;4.55;;;;;;;;;;5068484;28;20033;-50
2021/07/31 00:25:01;;;;;;;9.52;4.00;;;;;;;;;;5068851;28;20848;-50
2021/07/31 00:27:27;;;;;;;5.95;4.05;;;;;;;;;;5067914;28;20083;-48
2021/07/31 00:29:53;;;;;;;5.57;3.35;;;;;;;;;;5075419;28;20491;-48
2021/07/31 00:32:19;;;;;;;6.22;4.40;;;;;;;;;;5059983;28;20032;-48
2021/07/31 00:34:45;;;;;;;7.60;4.30;;;;;;;;;;5064060;28;20036;-49
2021/07/31 00:37:11;;;;;;;9.32;4.60;;;;;;;;;;5058826;28;20390;-49
2021/07/31 00:39:40;;;;;;;6.93;4.30;;;;;;;;;;5074514;28;20030;-48
2021/07/31 00:42:07;;;;;;;6.28;4.13;;;;;;;;;;5067806;28;20025;-49
2021/07/31 00:44:33;;;;;;;10.65;5.03;;;;;;;;;;5088731;28;20032;-49
2021/07/31 00:46:59;;;;;;;7.28;4.75;;;;;;;;;;5062961;28;20050;-49
2021/07/31 00:49:25;;;;;;;5.50;4.15;;;;;;;;;;5088714;28;20467;-48
2021/07/31 00:51:51;;;;;;;7.88;3.58;;;;;;;;;;5072735;28;20415;-49
2021/07/31 00:54:17;;;;;;;4.57;3.25;;;;;;;;;;5075418;28;20035;-48
2021/07/31 00:56:44;;;;;;;6.15;4.00;;;;;;;;;;5062018;28;20020;-48
2021/07/31 00:59:10;;;;;;;4.60;3.75;;;;;;;;;;5076282;28;20024;-49
2021/07/31 01:01:37;;;;;;;8.32;4.05;;;;;;;;;;5062348;28;20107;-48
2021/07/31 01:04:03;;;;;;;6.88;3.85;;;;;;;;;;5059579;28;20132;-48
2021/07/31 01:06:29;;;;;;;8.95;4.53;;;;;;;;;;5060321;28;20100;-49
2021/07/31 01:08:55;;;;;;;5.80;3.78;;;;;;;;;;5075423;28;20221;-48
2021/07/31 01:11:21;;;;;;;6.15;4.22;;;;;;;;;;5070749;28;20045;-48
2021/07/31 01:13:47;;;;;;;6.93;4.22;;;;;;;;;;5083943;28;20028;-48
2021/07/31 01:16:13;;;;;;;6.63;4.15;;;;;;;;;;5071175;28;20025;-51
2021/07/31 01:18:39;;;;;;;5.43;3.90;;;;;;;;;;5086144;28;20107;-50
2021/07/31 01:21:05;;;;;;;5.60;3.95;;;;;;;;;;5080599;28;20036;-48
2021/07/31 01:23:31;;;;;;;8.15;4.13;;;;;;;;;;5075349;28;20035;-48
2021/07/31 01:25:57;;;;;;;4.35;3.75;;;;;;;;;;5070584;28;20458;-49
2021/07/31 01:28:24;;;;;;;6.07;3.55;;;;;;;;;;5065567;28;20111;-48
2021/07/31 01:30:50;;;;;;;5.47;4.40;;;;;;;;;;5068442;28;20017;-48
2021/07/31 01:33:16;;;;;;;7.22;4.15;;;;;;;;;;5078338;28;20040;-48
2021/07/31 01:35:42;;;;;;;4.72;3.97;;;;;;;;;;5063128;28;20025;-49
2021/07/31 01:38:08;;;;;;;6.82;3.72;;;;;;;;;;5070863;28;20118;-49
2021/07/31 01:40:34;;;;;;;5.75;4.18;;;;;;;;;;5067181;28;20025;-48
2021/07/31 01:43:00;;;;;;;6.00;3.70;;;;;;;;;;5072585;28;20051;-48
2021/07/31 01:45:27;;;;;;;6.65;4.38;;;;;;;;;;5067043;28;20028;-53
2021/07/31 01:47:53;;;;;;;5.82;4.00;;;;;;;;;;5071749;28;20036;-49
2021/07/31 01:50:19;;;;;;;7.68;4.20;;;;;;;;;;5072560;28;20139;-50
2021/07/31 01:52:45;;;;;;;5.57;4.32;;;;;;;;;;5079914;28;20249;-48
2021/07/31 01:55:12;;;;;;;7.15;4.18;;;;;;;;;;5077946;28;20082;-50
2021/07/31 01:57:38;;;;;;;6.70;4.28;;;;;;;;;;5090810;28;20093;-48
2021/07/31 02:00:04;;;;;;;6.47;3.63;;;;;;;;;;5089765;28;20040;-48
2021/07/31 02:02:30;;;;;;;9.85;3.80;;;;;;;;;;5077166;28;20095;-48
2021/07/31 02:04:56;;;;;;;5.80;3.95;;;;;;;;;;5062863;28;20028;-48
2021/07/31 02:07:22;;;;;;;5.40;4.00;;;;;;;;;;5080731;28;20641;-48
2021/07/31 02:09:48;;;;;;;6.63;4.28;;;;;;;;;;5079344;28;20041;-48
2021/07/31 02:12:14;;;;;;;4.80;3.42;;;;;;;;;;5073396;28;20368;-48
2021/07/31 02:14:41;;;;;;;6.05;3.60;;;;;;;;;;5089269;28;20377;-49
2021/07/31 02:17:06;;;;;;;6.28;3.63;;;;;;;;;;5066251;28;20029;-48
2021/07/31 02:19:33;;;;;;;6.53;3.15;;;;;;;;;;5077426;28;20035;-48
2021/07/31 02:22:00;;;;;;;6.80;3.10;;;;;;;;;;5067153;28;20845;-48
2021/07/31 02:24:26;;;;;;;12.75;3.38;;;;;;;;;;5060851;28;20864;-49
2021/07/31 02:26:52;;;;;;;4.32;3.65;;;;;;;;;;5066554;28;20112;-48
2021/07/31 02:29:18;;;;;;;5.20;3.10;;;;;;;;;;5060406;28;20029;-51
2021/07/31 02:31:44;;;;;;;5.35;3.30;;;;;;;;;;5065999;28;20485;-48
2021/07/31 02:34:10;;;;;;;5.35;3.47;;;;;;;;;;5068488;28;20100;-48
2021/07/31 02:36:36;;;;;;;10.30;2.70;;;;;;;;;;5070630;28;20032;-48
2021/07/31 02:39:02;;;;;;;4.88;2.80;;;;;;;;;;5066687;28;20025;-48
2021/07/31 02:41:28;;;;;;;5.25;2.90;;;;;;;;;;5064242;28;20032;-48
2021/07/31 02:43:54;;;;;;;6.88;3.40;;;;;;;;;;5065588;28;20106;-49
2021/07/31 02:46:20;;;;;;;4.40;2.92;;;;;;;;;;5074925;28;20074;-48
2021/07/31 02:48:46;;;;;;;6.15;2.92;;;;;;;;;;5080840;28;20060;-48
2021/07/31 02:51:13;;;;;;;5.93;2.95;;;;;;;;;;5079748;28;20475;-48
2021/07/31 02:53:39;;;;;;;3.75;2.58;;;;;;;;;;5080175;28;20082;-48
2021/07/31 02:56:06;;;;;;;6.93;2.88;;;;;;;;;;5075178;28;20048;-48
2021/07/31 02:58:32;;;;;;;5.90;2.80;;;;;;;;;;5074693;28;20112;-48
2021/07/31 03:01:02;;;;;;;4.90;3.10;;;;;;;;;;5086399;28;20118;-48
2021/07/31 03:03:28;;;;;;;7.22;3.20;;;;;;;;;;5081694;28;20466;-48
2021/07/31 03:05:55;;;;;;;4.90;2.67;;;;;;;;;;5071322;28;20060;-48
2021/07/31 03:08:21;;;;;;;4.95;2.30;;;;;;;;;;5062926;28;20032;-48
2021/07/31 03:10:47;;;;;;;4.32;2.70;;;;;;;;;;5077031;28;20485;-48
2021/07/31 03:13:13;;;;;;;6.65;2.45;;;;;;;;;;5063063;28;20075;-49
2021/07/31 03:15:41;;;;;;;4.07;2.60;;;;;;;;;;5072037;28;20112;-48
2021/07/31 03:18:07;;;;;;;3.47;2.53;;;;;;;;;;5060312;28;20021;-48
2021/07/31 03:20:33;;;;;;;2.97;2.38;;;;;;;;;;5072963;28;20499;-48
2021/07/31 03:22:59;;;;;;;4.80;2.50;;;;;;;;;;5069344;28;20377;-48
2021/07/31 03:25:25;;;;;;;4.63;2.80;;;;;;;;;;5076374;28;20028;-49
2021/07/31 03:27:51;;;;;;;5.65;2.17;;;;;;;;;;5066264;28;20033;-48
2021/07/31 03:30:17;;;;;;;5.05;2.40;;;;;;;;;;5089906;28;20036;-48
2021/07/31 03:32:43;;;;;;;5.35;2.50;;;;;;;;;;5062591;28;20562;-52
2021/07/31 03:35:09;;;;;;;4.07;2.38;;;;;;;;;;5064615;28;20075;-52
2021/07/31 03:37:35;;;;;;;5.82;2.35;;;;;;;;;;5065367;28;20107;-49
2021/07/31 03:40:02;;;;;;;3.90;2.20;;;;;;;;;;5069991;28;20500;-48
2021/07/31 03:42:28;;;;;;;3.80;2.30;;;;;;;;;;5066689;28;20448;-52
2021/07/31 03:44:54;;;;;;;4.60;2.28;;;;;;;;;;5070024;28;20035;-48
2021/07/31 03:47:20;;;;;;;6.88;2.58;;;;;;;;;;5082072;28;20469;-48
2021/07/31 03:49:46;;;;;;;3.28;2.10;;;;;;;;;;5093572;28;20341;-48
2021/07/31 03:52:12;;;;;;;2.20;1.70;;;;;;;;;;5088431;28;20081;-48
2021/07/31 03:54:38;;;;;;;3.20;2.05;;;;;;;;;;5086200;28;20036;-50
2021/07/31 03:57:04;;;;;;;3.45;1.92;;;;;;;;;;5079510;28;20033;-48
2021/07/31 03:59:30;;;;;;;2.65;2.08;;;;;;;;;;5061423;28;20128;-48
2021/07/31 04:01:56;;;;;;;3.97;1.88;;;;;;;;;;5070595;28;20376;-49
2021/07/31 04:04:22;;;;;;;3.38;2.03;;;;;;;;;;5092514;28;20027;-48
2021/07/31 04:06:48;;;;;;;3.05;1.90;;;;;;;;;;5081043;28;20020;-48
2021/07/31 04:09:14;;;;;;;4.57;1.75;;;;;;;;;;5078746;28;20028;-50
2021/07/31 04:11:40;;;;;;;2.00;1.58;;;;;;;;;;5067924;28;20024;-48
2021/07/31 04:14:06;;;;;;;3.17;2.15;;;;;;;;;;5059846;28;20029;-49
2021/07/31 04:16:34;;;;;;;2.60;1.98;;;;;;;;;;5065302;28;20044;-51
2021/07/31 04:19:00;;;;;;;4.75;2.00;;;;;;;;;;5079004;28;20024;-49
2021/07/31 04:21:25;;;;;;;2.80;1.63;;;;;;;;;;5069918;28;20048;-51
2021/07/31 04:23:51;;;;;;;6.15;1.83;;;;;;;;;;5069719;28;20037;-49
2021/07/31 04:26:18;;;;;;;4.28;1.73;;;;;;;;;;5066587;28;20025;-48
2021/07/31 04:28:44;;;;;;;3.00;2.15;;;;;;;;;;5073069;28;20509;-49
2021/07/31 04:31:14;;;;;;;5.43;1.85;;;;;;;;;;5083005;28;20025;-48
2021/07/31 04:33:40;;;;;;;8.98;2.00;;;;;;;;;;5064654;28;20036;-47
2021/07/31 04:36:07;;;;;;;6.43;2.00;;;;;;;;;;5063657;28;20028;-48
2021/07/31 04:38:33;;;;;;;3.05;1.65;;;;;;;;;;5060411;28;20054;-48
2021/07/31 04:40:59;;;;;;;3.40;2.05;;;;;;;;;;5061447;28;20401;-48
2021/07/31 04:43:25;;;;;;;4.75;2.00;;;;;;;;;;5070563;28;20032;-49
2021/07/31 04:45:51;;;;;;;3.45;1.92;;;;;;;;;;5069356;28;20030;-50
2021/07/31 04:48:17;;;;;;;2.95;1.50;;;;;;;;;;5080159;28;20027;-48
2021/07/31 04:50:43;;;;;;;7.07;1.42;;;;;;;;;;5077918;28;20031;-49
2021/07/31 04:53:09;;;;;;;3.13;1.75;;;;;;;;;;5070143;28;20028;-53
2021/07/31 04:55:35;;;;;;;3.10;1.45;;;;;;;;;;5063921;28;20055;-48
2021/07/31 04:58:01;;;;;;;4.63;1.20;;;;;;;;;;5071527;28;20020;-48
2021/07/31 05:00:27;;;;;;;3.05;1.50;;;;;;;;;;5084027;28;20020;-48
2021/07/31 05:02:53;;;;;;;3.60;1.50;;;;;;;;;;5054580;28;20040;-48
2021/07/31 05:05:19;;;;;;;5.38;1.88;;;;;;;;;;5067902;28;20033;-48
2021/07/31 05:07:45;;;;;;;5.68;1.70;;;;;;;;;;5057680;28;20036;-48
2021/07/31 05:10:11;;;;;;;2.72;1.40;;;;;;;;;;5066214;28;20060;-48
2021/07/31 05:12:37;;;;;;;2.40;1.17;;;;;;;;;;5076612;28;20162;-48
2021/07/31 05:15:03;;;;;;;1.50;1.10;;;;;;;;;;5090144;28;20103;-49
2021/07/31 05:17:29;;;;;;;2.08;1.40;;;;;;;;;;5068927;28;20051;-48
2021/07/31 05:19:55;;;;;;;4.93;1.80;;;;;;;;;;5059436;28;20436;-51
2021/07/31 05:22:21;;;;;;;4.07;1.20;;;;;;;;;;5072950;28;20138;-51
2021/07/31 05:24:53;;;;;;;2.65;1.40;;;;;;;;;;5080671;28;20067;-48
2021/07/31 05:27:19;;;;;;;3.17;1.50;;;;;;;;;;5064275;28;20056;-49
2021/07/31 05:29:45;;;;;;;3.10;1.50;;;;;;;;;;5055064;28;20118;-48
2021/07/31 05:32:11;;;;;;;1.85;1.10;;;;;;;;;;5064945;28;20025;-48
2021/07/31 05:34:38;;;;;;;3.63;1.48;;;;;;;;;;5059991;28;20032;-49
2021/07/31 05:37:04;;;;;;;4.07;1.40;;;;;;;;;;5056712;28;20457;-48
2021/07/31 05:39:33;;;;;;;1.63;1.00;;;;;;;;;;5064442;28;20029;-48
2021/07/31 05:42:02;;;;;;;2.20;1.30;;;;;;;;;;5055861;28;20028;-48
2021/07/31 05:44:28;;;;;;;2.83;1.15;;;;;;;;;;5078606;28;20023;-48
2021/07/31 05:46:54;;;;;;;4.30;1.48;;;;;;;;;;5072561;28;20024;-48
2021/07/31 05:49:19;;;;;;;4.32;1.10;;;;;;;;;;5088973;28;20069;-48
2021/07/31 05:51:45;;;;;;;3.25;1.27;;;;;;;;;;5074137;28;20023;-48
2021/07/31 05:54:11;;;;;;;5.97;1.52;;;;;;;;;;5064115;28;20028;-48
2021/07/31 05:56:38;;;;;;;2.13;1.40;;;;;;;;;;5065734;28;20025;-48
2021/07/31 05:59:04;;;;;;;4.57;1.10;;;;;;;;;;5061831;28;20024;-53
2021/07/31 06:01:35;;;;;;;3.25;0.90;;;;;;;;;;5078350;28;20021;-49
2021/07/31 06:04:01;;;;;;;3.22;1.02;;;;;;;;;;5069932;28;20028;-48
2021/07/31 06:06:27;;;;;;;3.20;1.42;;;;;;;;;;5060655;28;20035;-48
2021/07/31 06:08:53;;;;;;;1.98;1.10;;;;;;;;;;5070871;28;20031;-48
2021/07/31 06:11:19;;;;;;;4.28;1.40;;;;;;;;;;5055260;28;20045;-48
2021/07/31 06:13:45;;;;;;;2.33;1.10;;;;;;;;;;5073997;28;20107;-49
2021/07/31 06:16:11;;;;;;;3.47;1.00;;;;;;;;;;5075374;28;20360;-48
2021/07/31 06:18:39;;;;;;;5.38;1.48;;;;;;;;;;5073131;28;20048;-48
2021/07/31 06:21:05;;;;;;;2.10;1.00;;;;;;;;;;5076793;28;20029;-50
2021/07/31 06:23:31;;;;;;;2.08;0.80;;;;;;;;;;5062326;28;20039;-48
2021/07/31 06:26:04;;;;;;;2.70;1.50;;;;;;;;;;5078828;28;20029;-48
2021/07/31 06:28:29;;;;;;;5.03;1.20;;;;;;;;;;5072993;28;20059;-49
2021/07/31 06:30:55;;;;;;;2.40;0.93;;;;;;;;;;5076561;28;20417;-48
2021/07/31 06:33:21;;;;;;;4.22;1.15;;;;;;;;;;5057102;28;20110;-51
2021/07/31 06:35:47;;;;;;;3.53;1.10;;;;;;;;;;5063101;28;20514;-52
2021/07/31 06:38:13;;;;;;;2.80;1.08;;;;;;;;;;5077994;28;20481;-48
2021/07/31 06:40:42;;;;;;;5.35;0.93;;;;;;;;;;5073325;28;20028;-51
2021/07/31 06:43:08;;;;;;;2.42;0.82;;;;;;;;;;5060940;28;20407;-50
2021/07/31 06:45:34;;;;;;;3.45;1.10;;;;;;;;;;5073487;28;20035;-48
2021/07/31 06:48:00;;;;;;;6.20;1.20;;;;;;;;;;5060605;28;20028;-48
2021/07/31 06:50:26;;;;;;;2.95;1.02;;;;;;;;;;5066678;28;20033;-49
2021/07/31 06:52:52;;;;;;;3.58;0.80;;;;;;;;;;5061553;28;20104;-50
2021/07/31 06:55:18;;;;;;;4.35;1.08;;;;;;;;;;5073626;28;20086;-50
2021/07/31 06:57:44;;;;;;;2.20;0.85;;;;;;;;;;5059642;28;20029;-51
2021/07/31 07:00:10;;;;;;;3.88;1.23;;;;;;;;;;5091438;28;20449;-51
2021/07/31 07:02:36;;;;;;;3.10;0.93;;;;;;;;;;5068685;28;20043;-49
2021/07/31 07:05:02;;;;;;;2.88;0.93;;;;;;;;;;5081678;28;20031;-48
2021/07/31 07:07:28;;;;;;;3.42;0.73;;;;;;;;;;5065280;28;20021;-50
2021/07/31 07:09:54;;;;;;;2.47;0.90;;;;;;;;;;5071566;28;20102;-48
2021/07/31 07:12:20;;;;;;;3.60;1.02;;;;;;;;;;5068354;28;20016;-49
2021/07/31 07:14:46;;;;;;;4.50;0.88;;;;;;;;;;5079605;28;20036;-50
2021/07/31 07:17:12;;;;;;;3.03;0.93;;;;;;;;;;5077196;28;20031;-51
2021/07/31 07:19:38;;;;;;;2.58;1.00;;;;;;;;;;5075943;28;20441;-49
2021/07/31 07:22:04;;;;;;;2.65;0.73;;;;;;;;;;5058726;28;20021;-49
2021/07/31 07:24:30;;;;;;;2.13;1.00;;;;;;;;;;5055639;28;20424;-48
2021/07/31 07:26:56;;;;;;;1.65;0.60;;;;;;;;;;5075090;28;20058;-48
2021/07/31 07:29:24;;;;;;;2.10;1.00;;;;;;;;;;5076601;28;20120;-48
2021/07/31 07:31:50;;;;;;;2.83;0.88;;;;;;;;;;5065021;28;20025;-50
2021/07/31 07:34:16;;;;;;;2.50;0.90;;;;;;;;;;5068055;28;20033;-50
2021/07/31 07:36:42;;;;;;;5.95;0.90;;;;;;;;;;5086129;28;20035;-48
2021/07/31 07:39:08;;;;;;;3.22;0.90;;;;;;;;;;5079297;28;20028;-49
2021/07/31 07:41:34;;;;;;;1.48;0.90;;;;;;;;;;5063583;28;20473;-48
2021/07/31 07:44:00;;;;;;;3.10;0.88;;;;;;;;;;5080712;28;20073;-48
2021/07/31 07:46:26;;;;;;;5.43;0.88;;;;;;;;;;5080362;28;20024;-50
2021/07/31 07:48:52;;;;;;;4.53;0.68;;;;;;;;;;5093349;28;20032;-52
2021/07/31 07:51:18;;;;;;;3.17;0.90;;;;;;;;;;5076444;28;20475;-48
2021/07/31 07:53:44;;;;;;;3.85;0.95;;;;;;;;;;5068856;28;20052;-51
2021/07/31 07:56:11;;;;;;;3.15;1.00;;;;;;;;;;5087494;28;20028;-47
2021/07/31 07:58:37;;;;;;;3.05;0.35;;;;;;;;;;5064039;28;20060;-49
2021/07/31 08:01:04;;;;;;;1.35;0.77;;;;;;;;;;5054706;28;20459;-48
2021/07/31 08:03:30;;;;;;;2.35;0.73;;;;;;;;;;5067212;28;20145;-48
2021/07/31 08:05:56;;;;;;;1.27;0.57;;;;;;;;;;5068725;28;20152;-48
2021/07/31 08:08:22;;;;;;;4.00;0.82;;;;;;;;;;5060850;28;20112;-48
2021/07/31 08:10:51;;;;;;;2.28;0.73;;;;;;;;;;5056645;28;20522;-48
2021/07/31 08:13:17;;;;;;;5.38;0.70;;;;;;;;;;5069796;28;20052;-48
2021/07/31 08:15:43;;;;;;;3.38;0.50;;;;;;;;;;5068772;28;20086;-48
2021/07/31 08:18:11;;;;;;;3.67;0.80;;;;;;;;;;5057776;28;20047;-49
2021/07/31 08:20:36;;;;;;;5.78;0.70;;;;;;;;;;5064842;28;20428;-48
2021/07/31 08:23:03;;;;;;;2.40;0.93;;;;;;;;;;5063216;28;20062;-53
2021/07/31 08:25:29;;;;;;;3.38;1.00;;;;;;;;;;5069793;28;20104;-50
2021/07/31 08:27:55;;;;;;;2.70;0.88;;;;;;;;;;5065255;28;20033;-50
2021/07/31 08:30:21;;;;;;;2.70;0.70;;;;;;;;;;5062345;28;20044;-49
2021/07/31 08:32:47;;;;;;;2.20;0.73;;;;;;;;;;5080004;28;20028;-49
2021/07/31 08:35:13;;;;;;;3.13;0.70;;;;;;;;;;5073276;28;20035;-50
2021/07/31 08:37:40;;;;;;;3.72;0.88;;;;;;;;;;5061575;28;20040;-48
2021/07/31 08:40:07;;;;;;;3.83;0.70;;;;;;;;;;5055120;28;20024;-48
2021/07/31 08:42:35;;;;;;;3.63;0.85;;;;;;;;;;5062365;28;20028;-49
2021/07/31 08:45:02;;;;;;;1.50;0.70;;;;;;;;;;5074627;28;20025;-48
2021/07/31 08:47:29;;;;;;;4.53;0.88;;;;;;;;;;5058961;28;20111;-48
2021/07/31 08:49:55;;;;;;;3.55;0.80;;;;;;;;;;5057870;28;20033;-49
2021/07/31 08:52:21;;;;;;;2.28;0.80;;;;;;;;;;5071963;28;20077;-48
2021/07/31 08:54:47;;;;;;;4.35;0.90;;;;;;;;;;5063299;28;20017;-48
2021/07/31 08:57:13;;;;;;;3.75;1.13;;;;;;;;;;5055466;28;20032;-49
2021/07/31 08:59:39;;;;;;;4.03;1.05;;;;;;;;;;5058260;28;20020;-48
2021/07/31 09:02:07;;;;;;;1.77;0.75;;;;;;;;;;5061672;28;20378;-49
2021/07/31 09:04:33;;;;;;;2.70;0.80;;;;;;;;;;5074542;28;20020;-49
2021/07/31 09:06:59;;;;;;;6.50;0.90;;;;;;;;;;5092492;28;20025;-48
2021/07/31 09:09:26;;;;;;;1.80;0.88;;;;;;;;;;5091433;28;20392;-48
2021/07/31 09:11:58;;;;;;;2.72;0.93;;;;;;;;;;5072854;28;20032;-48
2021/07/31 09:14:24;;;;;;;2.30;0.88;;;;;;;;;;5067308;28;20033;-51
2021/07/31 09:16:50;;;;;;;2.53;1.10;;;;;;;;;;5065794;28;21496;-50
2021/07/31 09:19:17;;;;;;;1.60;0.80;;;;;;;;;;5063655;28;20021;-48
2021/07/31 09:21:43;;;;;;;4.50;1.10;;;;;;;;;;5078660;28;20037;-49
2021/07/31 09:24:16;;;;;;;2.13;1.00;;;;;;;;;;5070953;28;20084;-49
2021/07/31 09:26:48;;;;;;;2.10;0.80;;;;;;;;;;5072230;28;20028;-50
2021/07/31 09:29:15;;;;;;;3.50;0.93;;;;;;;;;;5080133;28;20035;-48
2021/07/31 09:31:49;;;;;;;5.47;1.23;;;;;;;;;;5080271;28;20456;-50
2021/07/31 09:34:28;;;;;;;3.88;1.02;;;;;;;;;;5080455;28;20017;-48
2021/07/31 09:37:11;;;;;;;2.45;0.80;;;;;;;;;;5077454;28;20044;-48
2021/07/31 09:39:52;;;;;;;5.88;1.27;;;;;;;;;;5076773;28;20035;-49
2021/07/31 09:42:32;;;;;;;5.72;1.00;;;;;;;;;;5059731;28;20032;-50
2021/07/31 09:45:00;;;;;;;3.97;0.90;;;;;;;;;;5068059;28;20039;-48
2021/07/31 09:47:29;;;;;;;1.80;0.70;;;;;;;;;;5068782;28;20464;-48
2021/07/31 09:49:57;;;;;;;3.75;1.30;;;;;;;;;;5058433;28;20028;-48
2021/07/31 09:52:24;;;;;;;5.63;0.90;;;;;;;;;;5061023;28;20086;-48
2021/07/31 09:54:51;;;;;;;1.30;0.80;;;;;;;;;;5064256;28;20081;-48
2021/07/31 09:57:17;;;;;;;6.22;0.77;;;;;;;;;;5086079;28;20025;-48
2021/07/31 09:59:44;;;;;;;0.93;0.60;;;;;;;;;;5067379;28;20120;-49
2021/07/31 10:02:14;;;;;;;1.98;1.08;;;;;;;;;;5060813;28;20142;-48
2021/07/31 10:04:40;;;;;;;2.70;1.00;;;;;;;;;;5060980;28;20028;-50
2021/07/31 10:07:06;;;;;;;4.72;1.08;;;;;;;;;;5074462;28;20491;-49
2021/07/31 10:09:33;;;;;;;5.32;0.90;;;;;;;;;;5082353;28;20059;-48
2021/07/31 10:11:59;;;;;;;4.82;0.80;;;;;;;;;;5075893;28;20051;-49
2021/07/31 10:14:25;;;;;;;3.60;0.80;;;;;;;;;;5077186;28;20476;-49
2021/07/31 10:16:52;;;;;;;4.97;0.90;;;;;;;;;;5067912;28;20032;-48
2021/07/31 10:19:18;;;;;;;1.50;0.75;;;;;;;;;;5066335;28;20075;-47
2021/07/31 10:21:48;;;;;;;4.53;1.02;;;;;;;;;;5079239;28;20036;-50
2021/07/31 10:24:14;;;;;;;4.07;1.00;;;;;;;;;;5080523;28;20524;-49
2021/07/31 10:26:40;;;;;;;3.28;0.90;;;;;;;;;;5067531;28;20033;-48
2021/07/31 10:29:25;;;;;;;3.90;0.90;;;;;;;;;;5071573;28;20036;-47
2021/07/31 10:31:51;;;;;;;2.72;1.00;;;;;;;;;;5076992;28;20737;-48
2021/07/31 10:34:57;;;;;;;1.23;0.70;;;;;;;;;;5075560;28;20036;-47
2021/07/31 10:37:32;;;;;;;5.90;0.90;;;;;;;;;;5032752;28;20029;-49
2021/07/31 10:40:00;;;;;;;3.80;0.70;;;;;;;;;;5033024;28;20025;-48
2021/07/31 10:42:27;;;;;;;4.28;0.88;;;;;;;;;;5056678;28;20044;-50
2021/07/31 10:45:11;;;;;;;1.58;0.65;;;;;;;;;;5076269;28;20039;-48
2021/07/31 10:47:38;;;;;;;2.45;0.82;;;;;;;;;;5072869;28;20032;-49
2021/07/31 10:50:25;;;;;;;2.42;0.90;;;;;;;;;;5078366;28;20531;-48
2021/07/31 10:53:11;;;;;;;5.22;1.30;;;;;;;;;;5076883;28;20579;-47
2021/07/31 10:55:37;;;;;;;2.17;0.68;;;;;;;;;;5077729;28;20028;-48
2021/07/31 10:58:17;;;;;;;3.42;0.60;;;;;;;;;;5074104;28;20032;-47
2021/07/31 11:00:53;;;;;;;3.75;0.73;;;;;;;;;;5074191;28;20032;-48
2021/07/31 11:03:23;;;;;;;1.25;0.38;;;;;;;;;;5074028;28;20036;-48
2021/07/31 11:05:49;;;;;;;2.13;0.73;;;;;;;;;;5077308;28;20036;-47
2021/07/31 11:08:16;;;;;;;2.85;0.80;;;;;;;;;;5075677;28;20028;-48
2021/07/31 11:10:45;;;;;;;5.28;0.80;;;;;;;;;;5074939;28;20822;-49
2021/07/31 11:13:12;;;;;;;1.38;0.63;;;;;;;;;;5073591;28;20025;-48
2021/07/31 11:15:56;;;;;;;6.15;0.90;;;;;;;;;;5075314;28;20040;-50
2021/07/31 11:18:42;;;;;;;1.48;0.60;;;;;;;;;;5077653;28;20036;-50
2021/07/31 11:21:17;;;;;;;3.72;0.65;;;;;;;;;;5074228;28;20070;-47
2021/07/31 11:23:53;;;;;;;2.50;0.73;;;;;;;;;;5075141;28;20044;-48
2021/07/31 11:26:41;;;;;;;4.32;1.45;;;;;;;;;;5075412;28;20043;-49
2021/07/31 11:29:11;;;;;;;8.27;0.80;;;;;;;;;;5075554;28;20115;-49
2021/07/31 11:31:38;;;;;;;6.15;1.00;;;;;;;;;;5077378;28;20495;-50
2021/07/31 11:34:06;;;;;;;1.70;0.82;;;;;;;;;;5073598;28;20262;-47
2021/07/31 11:36:32;;;;;;;1.25;0.50;;;;;;;;;;5077197;28;20114;-50
2021/07/31 11:38:59;;;;;;;3.17;0.70;;;;;;;;;;5077275;28;20029;-49
2021/07/31 11:41:25;;;;;;;2.63;0.60;;;;;;;;;;5075154;28;20365;-47
2021/07/31 11:43:59;;;;;;;1.77;0.70;;;;;;;;;;5076028;28;20498;-47
2021/07/31 11:46:54;;;;;;;1.48;0.80;;;;;;;;;;5072617;28;20051;-48
2021/07/31 11:49:26;;;;;;;4.15;0.50;;;;;;;;;;5072170;28;20526;-48
2021/07/31 11:51:53;;;;;;;5.97;0.63;;;;;;;;;;5076590;28;20484;-50
2021/07/31 11:54:19;;;;;;;1.30;0.52;;;;;;;;;;5077456;28;20012;-48
2021/07/31 11:56:48;;;;;;;1.75;0.68;;;;;;;;;;5075564;28;20033;-48
2021/07/31 11:59:22;;;;;;;1.48;0.70;;;;;;;;;;5072633;28;20111;-48
2021/07/31 12:01:52;;;;;;;4.53;0.60;;;;;;;;;;5078686;28;20113;-52
2021/07/31 12:04:38;;;;;;;3.15;0.52;;;;;;;;;;5074829;28;20028;-48
2021/07/31 12:07:13;;;;;;;2.58;0.40;;;;;;;;;;5074797;28;20029;-49
2021/07/31 12:09:40;;;;;;;2.17;0.65;;;;;;;;;;5075414;28;20043;-48
2021/07/31 12:12:22;;;;;;;2.05;0.60;;;;;;;;;;5073026;28;20033;-48
2021/07/31 12:15:07;;;;;;;2.53;0.60;;;;;;;;;;5071243;28;20038;-48
2021/07/31 12:17:33;;;;;;;2.45;0.70;;;;;;;;;;5073698;28;20028;-48
2021/07/31 12:19:59;;;;;;;5.80;0.52;;;;;;;;;;5073119;28;20040;-50
2021/07/31 12:22:30;;;;;;;2.95;0.80;;;;;;;;;;5076172;28;21922;-48
2021/07/31 12:25:11;;;;;;;3.33;0.70;;;;;;;;;;5076829;28;20040;-48
2021/07/31 12:27:54;;;;;;;5.47;0.40;;;;;;;;;;5073382;28;20032;-48
2021/07/31 12:30:40;;;;;;;0.57;0.50;;;;;;;;;;5074364;28;20075;-48
2021/07/31 12:33:05;;;;;;;3.10;0.50;;;;;;;;;;5074976;28;20028;-49
2021/07/31 12:35:44;;;;;;;2.42;0.50;;;;;;;;;;5074378;28;20491;-50
2021/07/31 12:38:12;;;;;;;0.90;0.35;;;;;;;;;;5081163;28;20492;-48
2021/07/31 12:40:39;;;;;;;1.30;0.43;;;;;;;;;;5091355;28;20118;-48
2021/07/31 12:43:05;;;;;;;2.17;0.52;;;;;;;;;;5067050;28;20036;-48
2021/07/31 12:45:31;;;;;;;2.67;0.65;;;;;;;;;;5083419;28;20024;-48
2021/07/31 12:47:57;;;;;;;3.65;0.50;;;;;;;;;;5072990;28;20491;-48
2021/07/31 12:50:23;;;;;;;4.18;0.60;;;;;;;;;;5092993;28;20062;-48
2021/07/31 12:52:50;;;;;;;1.70;0.63;;;;;;;;;;5063265;28;20052;-51
2021/07/31 12:55:16;;;;;;;0.68;0.40;;;;;;;;;;5060067;28;20112;-48
2021/07/31 12:57:43;;;;;;;4.07;0.65;;;;;;;;;;5082354;28;20051;-48
2021/07/31 13:00:09;;;;;;;1.60;0.63;;;;;;;;;;5071570;28;20167;-50
2021/07/31 13:02:35;;;;;;;1.60;0.43;;;;;;;;;;5071379;28;20458;-48
2021/07/31 13:05:01;;;;;;;1.48;0.40;;;;;;;;;;5071965;28;20025;-48
2021/07/31 13:07:27;;;;;;;1.00;0.40;;;;;;;;;;5066848;28;20491;-48
2021/07/31 13:09:53;;;;;;;3.65;0.93;;;;;;;;;;5073768;28;20044;-48
2021/07/31 13:12:19;;;;;;;2.33;0.57;;;;;;;;;;5067916;28;20025;-48
2021/07/31 13:14:45;;;;;;;1.73;0.38;;;;;;;;;;5067724;28;20032;-48
2021/07/31 13:17:11;;;;;;;8.40;1.05;;;;;;;;;;5056009;28;20443;-48
2021/07/31 13:19:36;;;;;;;4.70;0.60;;;;;;;;;;5069888;28;20044;-48
2021/07/31 13:22:03;;;;;;;4.20;0.85;;;;;;;;;;5070102;28;20444;-48
2021/07/31 13:24:29;;;;;;;2.40;0.40;;;;;;;;;;5065353;28;20405;-48
2021/07/31 13:26:54;;;;;;;2.13;0.47;;;;;;;;;;5059904;28;20057;-49
2021/07/31 13:29:20;;;;;;;1.08;0.30;;;;;;;;;;5060222;28;20033;-48
2021/07/31 13:31:46;;;;;;;3.65;0.60;;;;;;;;;;5058743;28;20070;-48
2021/07/31 13:34:16;;;;;;;1.10;0.30;;;;;;;;;;5055556;28;20057;-48
2021/07/31 13:36:44;;;;;;;1.50;0.40;;;;;;;;;;5062085;28;20020;-48
2021/07/31 13:39:12;;;;;;;1.40;0.40;;;;;;;;;;5064232;28;20086;-48
2021/07/31 13:41:39;;;;;;;1.75;0.40;;;;;;;;;;5058731;28;20086;-48
2021/07/31 13:44:15;;;;;;;0.68;0.30;;;;;;;;;;5055951;28;20024;-50
2021/07/31 13:46:41;;;;;;;0.57;0.40;;;;;;;;;;5057332;28;20039;-48
2021/07/31 13:49:07;;;;;;;6.40;0.50;;;;;;;;;;5057453;28;20040;-48
2021/07/31 13:51:33;;;;;;;5.03;0.60;;;;;;;;;;5060224;28;20037;-49
2021/07/31 13:53:59;;;;;;;2.60;0.52;;;;;;;;;;5058800;28;20027;-50
2021/07/31 13:56:25;;;;;;;1.75;0.28;;;;;;;;;;5055000;28;20036;-48
2021/07/31 13:58:51;;;;;;;15.38;0.65;;;;;;;;;;5054881;28;20021;-50
2021/07/31 14:01:20;;;;;;;0.98;0.50;;;;;;;;;;5056402;28;20033;-48
2021/07/31 14:03:46;;;;;;;2.30;0.35;;;;;;;;;;5061476;28;20056;-48
2021/07/31 14:06:12;;;;;;;2.92;0.60;;;;;;;;;;5060020;28;20150;-48
2021/07/31 14:08:38;;;;;;;1.48;0.57;;;;;;;;;;5052307;28;20684;-49
2021/07/31 14:11:04;;;;;;;1.33;0.55;;;;;;;;;;5055125;28;20420;-48
2021/07/31 14:13:30;;;;;;;2.83;0.50;;;;;;;;;;5056824;28;20025;-48
2021/07/31 14:15:56;;;;;;;1.60;0.52;;;;;;;;;;5068833;28;20032;-47
2021/07/31 14:18:22;;;;;;;1.83;0.50;;;;;;;;;;5061712;28;20033;-49
2021/07/31 14:20:48;;;;;;;1.60;0.63;;;;;;;;;;5054722;28;20033;-48
2021/07/31 14:23:14;;;;;;;4.10;1.30;;;;;;;;;;5065715;28;20082;-48
2021/07/31 14:25:41;;;;;;;1.30;0.80;;;;;;;;;;5060202;28;20033;-50
2021/07/31 14:28:07;;;;;;;1.95;0.85;;;;;;;;;;5053493;28;20117;-49
2021/07/31 14:30:33;;;;;;;3.40;0.80;;;;;;;;;;5065306;28;20453;-48
2021/07/31 14:33:00;;;;;;;3.67;0.93;;;;;;;;;;5083391;28;20032;-47
2021/07/31 14:35:26;;;;;;;5.95;0.90;;;;;;;;;;5067334;28;20016;-48
2021/07/31 14:37:52;;;;;;;2.05;0.75;;;;;;;;;;5072643;28;20102;-48
2021/07/31 14:40:18;;;;;;;2.50;1.02;;;;;;;;;;5077394;28;20021;-48
2021/07/31 14:42:43;;;;;;;3.78;0.85;;;;;;;;;;5059341;28;20049;-47
2021/07/31 14:45:10;;;;;;;2.17;0.70;;;;;;;;;;5067141;28;20838;-47